SLCO/CIJ METAR and TAF weather

Enter ICAO airport designator
Station Type Date Time Source
SLCO METAR 2020/09/25 19:00 UTC NOAA

SLCO 251900Z 29003KT 8000 SCT033 37/24 Q1009


Station Type Date Time Source
SLCO Decoded METAR 2020/09/25 19:00 UTC NOAA

Cobija, Bolivia (SLCO) 11-02S 068-47W 260M
Sep 25, 2020 - 03:00 PM EDT / 2020.09.25 1900 UTC
Wind: from the WNW (290 degrees) at 3 MPH (3 KT):0
Visibility: 4 mile(s):0
Sky conditions: partly cloudy
Temperature: 98 F (37 C)
Heat index: 110.3 F (43.5 C):1
Dew Point: 75 F (24 C)
Relative Humidity: 47%
Pressure (altimeter): 29.80 in. Hg (1009 hPa)
ob: SLCO 251900Z 29003KT 8000 SCT033 37/24 Q1009
cycle: 19

Station Type Date Time Source
SLCO TAF 2020/09/25 18:36 UTC NOAA

TAF TAF SLCO 251635Z 2518/2618 30008KT 7000 FEW033 TX36/2520Z TN21/2611Z
BECMG 2600/2602 00000KT NSC

Example: see airport list